sensor_id;sensor_type;location;lat;lon;timestamp;P1;durP1;ratioP1;P2;durP2;ratioP2
47349;SDS011;33088;51.982;5.872;2022-11-23T00:03:42;15.40;;;7.07;;
47349;SDS011;33088;51.982;5.872;2022-11-23T00:06:08;18.45;;;6.88;;
47349;SDS011;33088;51.982;5.872;2022-11-23T00:08:34;16.08;;;7.95;;
47349;SDS011;33088;51.982;5.872;2022-11-23T00:11:03;12.82;;;7.55;;
47349;SDS011;33088;51.982;5.872;2022-11-23T00:13:28;13.85;;;7.25;;
47349;SDS011;33088;51.982;5.872;2022-11-23T00:15:54;18.63;;;7.85;;
47349;SDS011;33088;51.982;5.872;2022-11-23T00:18:20;15.27;;;7.28;;
47349;SDS011;33088;51.982;5.872;2022-11-23T00:20:48;13.20;;;6.13;;
47349;SDS011;33088;51.982;5.872;2022-11-23T00:23:14;17.92;;;7.35;;
47349;SDS011;33088;51.982;5.872;2022-11-23T00:25:44;17.33;;;7.68;;
47349;SDS011;33088;51.982;5.872;2022-11-23T00:28:13;11.57;;;7.85;;
47349;SDS011;33088;51.982;5.872;2022-11-23T00:30:39;11.82;;;7.07;;
47349;SDS011;33088;51.982;5.872;2022-11-23T00:33:04;17.38;;;8.57;;
47349;SDS011;33088;51.982;5.872;2022-11-23T00:35:40;19.67;;;9.27;;
47349;SDS011;33088;51.982;5.872;2022-11-23T00:38:06;20.02;;;8.93;;
47349;SDS011;33088;51.982;5.872;2022-11-23T00:40:34;19.92;;;8.70;;
47349;SDS011;33088;51.982;5.872;2022-11-23T00:42:59;16.45;;;7.28;;
47349;SDS011;33088;51.982;5.872;2022-11-23T00:45:27;17.73;;;7.57;;
47349;SDS011;33088;51.982;5.872;2022-11-23T00:47:53;18.40;;;9.27;;
47349;SDS011;33088;51.982;5.872;2022-11-23T00:50:20;17.30;;;9.05;;
47349;SDS011;33088;51.982;5.872;2022-11-23T00:52:48;21.48;;;8.35;;
47349;SDS011;33088;51.982;5.872;2022-11-23T00:55:14;18.30;;;7.70;;
47349;SDS011;33088;51.982;5.872;2022-11-23T00:57:40;15.80;;;8.38;;
47349;SDS011;33088;51.982;5.872;2022-11-23T01:00:06;22.08;;;8.80;;
47349;SDS011;33088;51.982;5.872;2022-11-23T01:02:33;20.02;;;8.57;;
47349;SDS011;33088;51.982;5.872;2022-11-23T01:05:00;15.70;;;8.73;;
47349;SDS011;33088;51.982;5.872;2022-11-23T01:07:29;22.60;;;9.43;;
47349;SDS011;33088;51.982;5.872;2022-11-23T01:09:56;21.67;;;10.20;;
47349;SDS011;33088;51.982;5.872;2022-11-23T01:12:21;15.18;;;8.55;;
47349;SDS011;33088;51.982;5.872;2022-11-23T01:14:47;16.63;;;8.93;;
47349;SDS011;33088;51.982;5.872;2022-11-23T01:17:13;20.67;;;8.02;;
47349;SDS011;33088;51.982;5.872;2022-11-23T01:19:40;17.63;;;9.15;;
47349;SDS011;33088;51.982;5.872;2022-11-23T01:22:06;21.27;;;8.27;;
47349;SDS011;33088;51.982;5.872;2022-11-23T01:24:34;13.65;;;7.68;;
47349;SDS011;33088;51.982;5.872;2022-11-23T01:27:00;21.50;;;7.97;;
47349;SDS011;33088;51.982;5.872;2022-11-23T01:29:26;20.27;;;7.95;;
47349;SDS011;33088;51.982;5.872;2022-11-23T01:31:55;16.48;;;7.07;;
47349;SDS011;33088;51.982;5.872;2022-11-23T01:34:21;18.63;;;7.88;;
47349;SDS011;33088;51.982;5.872;2022-11-23T01:36:48;15.38;;;6.88;;
47349;SDS011;33088;51.982;5.872;2022-11-23T01:39:17;16.35;;;6.50;;
47349;SDS011;33088;51.982;5.872;2022-11-23T01:41:45;20.50;;;7.22;;
47349;SDS011;33088;51.982;5.872;2022-11-23T01:46:57;14.65;;;6.80;;
47349;SDS011;33088;51.982;5.872;2022-11-23T01:49:29;17.35;;;6.20;;
47349;SDS011;33088;51.982;5.872;2022-11-23T01:52:01;19.27;;;6.32;;
47349;SDS011;33088;51.982;5.872;2022-11-23T01:54:31;16.95;;;6.43;;
47349;SDS011;33088;51.982;5.872;2022-11-23T01:57:05;14.18;;;5.63;;
47349;SDS011;33088;51.982;5.872;2022-11-23T01:59:36;21.77;;;6.10;;
47349;SDS011;33088;51.982;5.872;2022-11-23T02:02:05;28.73;;;7.10;;
47349;SDS011;33088;51.982;5.872;2022-11-23T02:04:33;15.65;;;5.97;;
47349;SDS011;33088;51.982;5.872;2022-11-23T02:07:03;14.30;;;4.95;;
47349;SDS011;33088;51.982;5.872;2022-11-23T02:09:30;16.10;;;6.00;;
47349;SDS011;33088;51.982;5.872;2022-11-23T02:11:57;16.08;;;5.18;;
47349;SDS011;33088;51.982;5.872;2022-11-23T02:14:23;11.23;;;5.47;;
47349;SDS011;33088;51.982;5.872;2022-11-23T02:16:52;16.45;;;5.38;;
47349;SDS011;33088;51.982;5.872;2022-11-23T02:22:08;14.38;;;4.63;;
47349;SDS011;33088;51.982;5.872;2022-11-23T02:27:16;17.15;;;5.45;;
47349;SDS011;33088;51.982;5.872;2022-11-23T02:29:42;11.88;;;4.30;;
47349;SDS011;33088;51.982;5.872;2022-11-23T02:32:08;15.25;;;4.63;;
47349;SDS011;33088;51.982;5.872;2022-11-23T02:34:34;18.40;;;5.07;;
47349;SDS011;33088;51.982;5.872;2022-11-23T02:36:59;17.58;;;5.15;;
47349;SDS011;33088;51.982;5.872;2022-11-23T02:42:09;16.00;;;4.47;;
47349;SDS011;33088;51.982;5.872;2022-11-23T02:44:43;11.43;;;4.53;;
47349;SDS011;33088;51.982;5.872;2022-11-23T02:47:22;17.63;;;5.18;;
47349;SDS011;33088;51.982;5.872;2022-11-23T02:49:52;10.00;;;4.13;;
47349;SDS011;33088;51.982;5.872;2022-11-23T02:52:18;13.40;;;4.70;;
47349;SDS011;33088;51.982;5.872;2022-11-23T02:54:44;16.38;;;4.20;;
47349;SDS011;33088;51.982;5.872;2022-11-23T02:57:11;12.27;;;5.40;;
47349;SDS011;33088;51.982;5.872;2022-11-23T02:59:38;11.77;;;4.72;;
47349;SDS011;33088;51.982;5.872;2022-11-23T03:02:05;12.52;;;4.28;;
47349;SDS011;33088;51.982;5.872;2022-11-23T03:04:31;17.45;;;6.22;;
47349;SDS011;33088;51.982;5.872;2022-11-23T03:06:57;10.40;;;3.75;;
47349;SDS011;33088;51.982;5.872;2022-11-23T03:09:23;10.50;;;4.57;;
47349;SDS011;33088;51.982;5.872;2022-11-23T03:11:51;10.13;;;4.47;;
47349;SDS011;33088;51.982;5.872;2022-11-23T03:14:17;12.57;;;4.00;;
47349;SDS011;33088;51.982;5.872;2022-11-23T03:16:48;14.32;;;4.45;;
47349;SDS011;33088;51.982;5.872;2022-11-23T03:19:16;8.90;;;3.92;;
47349;SDS011;33088;51.982;5.872;2022-11-23T03:21:42;11.40;;;3.88;;
47349;SDS011;33088;51.982;5.872;2022-11-23T03:24:07;8.20;;;3.60;;
47349;SDS011;33088;51.982;5.872;2022-11-23T03:26:34;10.07;;;3.67;;
47349;SDS011;33088;51.982;5.872;2022-11-23T03:29:08;21.25;;;3.70;;
47349;SDS011;33088;51.982;5.872;2022-11-23T03:31:33;13.70;;;3.50;;
47349;SDS011;33088;51.982;5.872;2022-11-23T03:33:59;14.02;;;3.55;;
47349;SDS011;33088;51.982;5.872;2022-11-23T03:36:28;12.50;;;3.25;;
47349;SDS011;33088;51.982;5.872;2022-11-23T03:38:54;11.13;;;2.83;;
47349;SDS011;33088;51.982;5.872;2022-11-23T03:41:35;14.90;;;3.15;;
47349;SDS011;33088;51.982;5.872;2022-11-23T03:44:01;15.20;;;4.30;;
47349;SDS011;33088;51.982;5.872;2022-11-23T03:46:26;14.75;;;3.65;;
47349;SDS011;33088;51.982;5.872;2022-11-23T03:48:52;9.40;;;2.75;;
47349;SDS011;33088;51.982;5.872;2022-11-23T03:51:19;20.42;;;5.30;;
47349;SDS011;33088;51.982;5.872;2022-11-23T03:53:44;14.15;;;3.40;;
47349;SDS011;33088;51.982;5.872;2022-11-23T03:56:11;18.15;;;4.40;;
47349;SDS011;33088;51.982;5.872;2022-11-23T03:58:41;16.73;;;2.97;;
47349;SDS011;33088;51.982;5.872;2022-11-23T04:01:10;11.55;;;3.55;;
47349;SDS011;33088;51.982;5.872;2022-11-23T04:03:36;9.20;;;4.05;;
47349;SDS011;33088;51.982;5.872;2022-11-23T04:06:14;11.50;;;4.43;;
47349;SDS011;33088;51.982;5.872;2022-11-23T04:09:12;16.95;;;3.35;;
47349;SDS011;33088;51.982;5.872;2022-11-23T04:11:49;14.27;;;4.05;;
47349;SDS011;33088;51.982;5.872;2022-11-23T04:14:15;11.15;;;2.97;;
47349;SDS011;33088;51.982;5.872;2022-11-23T04:16:41;13.10;;;3.20;;
47349;SDS011;33088;51.982;5.872;2022-11-23T04:19:07;9.25;;;2.75;;
47349;SDS011;33088;51.982;5.872;2022-11-23T04:21:33;14.90;;;3.45;;
47349;SDS011;33088;51.982;5.872;2022-11-23T04:23:59;20.35;;;3.95;;
47349;SDS011;33088;51.982;5.872;2022-11-23T04:26:26;12.73;;;2.83;;
47349;SDS011;33088;51.982;5.872;2022-11-23T04:28:52;10.95;;;3.35;;
47349;SDS011;33088;51.982;5.872;2022-11-23T04:31:18;15.85;;;4.07;;
47349;SDS011;33088;51.982;5.872;2022-11-23T04:33:57;25.13;;;3.60;;
47349;SDS011;33088;51.982;5.872;2022-11-23T04:36:24;12.88;;;3.58;;
47349;SDS011;33088;51.982;5.872;2022-11-23T04:38:52;11.18;;;2.50;;
47349;SDS011;33088;51.982;5.872;2022-11-23T04:41:23;14.10;;;3.30;;
47349;SDS011;33088;51.982;5.872;2022-11-23T04:43:49;11.75;;;2.70;;
47349;SDS011;33088;51.982;5.872;2022-11-23T04:46:16;10.80;;;3.20;;
47349;SDS011;33088;51.982;5.872;2022-11-23T04:48:43;13.50;;;3.40;;
47349;SDS011;33088;51.982;5.872;2022-11-23T04:51:09;15.65;;;3.50;;
47349;SDS011;33088;51.982;5.872;2022-11-23T04:53:36;15.10;;;3.22;;
47349;SDS011;33088;51.982;5.872;2022-11-23T04:56:03;15.45;;;4.32;;
47349;SDS011;33088;51.982;5.872;2022-11-23T04:58:33;15.93;;;3.50;;
47349;SDS011;33088;51.982;5.872;2022-11-23T05:01:01;11.60;;;3.33;;
47349;SDS011;33088;51.982;5.872;2022-11-23T05:03:28;12.00;;;3.35;;
47349;SDS011;33088;51.982;5.872;2022-11-23T05:05:58;11.18;;;3.35;;
47349;SDS011;33088;51.982;5.872;2022-11-23T05:08:30;10.85;;;2.85;;
47349;SDS011;33088;51.982;5.872;2022-11-23T05:11:17;16.00;;;4.35;;
47349;SDS011;33088;51.982;5.872;2022-11-23T05:13:45;18.27;;;3.47;;
47349;SDS011;33088;51.982;5.872;2022-11-23T05:16:11;17.10;;;3.83;;
47349;SDS011;33088;51.982;5.872;2022-11-23T05:18:38;17.17;;;3.53;;
47349;SDS011;33088;51.982;5.872;2022-11-23T05:21:03;15.25;;;3.58;;
47349;SDS011;33088;51.982;5.872;2022-11-23T05:23:29;12.38;;;2.90;;
47349;SDS011;33088;51.982;5.872;2022-11-23T05:25:56;25.73;;;4.10;;
47349;SDS011;33088;51.982;5.872;2022-11-23T05:28:22;15.38;;;3.45;;
47349;SDS011;33088;51.982;5.872;2022-11-23T05:30:48;11.90;;;3.00;;
47349;SDS011;33088;51.982;5.872;2022-11-23T05:33:14;14.05;;;3.05;;
47349;SDS011;33088;51.982;5.872;2022-11-23T05:35:41;24.67;;;4.10;;
47349;SDS011;33088;51.982;5.872;2022-11-23T05:38:10;13.07;;;2.53;;
47349;SDS011;33088;51.982;5.872;2022-11-23T05:40:36;13.30;;;3.03;;
47349;SDS011;33088;51.982;5.872;2022-11-23T05:43:11;10.75;;;2.65;;
47349;SDS011;33088;51.982;5.872;2022-11-23T05:45:37;15.18;;;3.20;;
47349;SDS011;33088;51.982;5.872;2022-11-23T05:48:03;12.70;;;3.50;;
47349;SDS011;33088;51.982;5.872;2022-11-23T05:50:48;14.85;;;2.35;;
47349;SDS011;33088;51.982;5.872;2022-11-23T05:53:19;13.63;;;2.97;;
47349;SDS011;33088;51.982;5.872;2022-11-23T05:55:49;7.03;;;2.47;;
47349;SDS011;33088;51.982;5.872;2022-11-23T05:58:16;12.10;;;3.55;;
47349;SDS011;33088;51.982;5.872;2022-11-23T06:00:42;15.68;;;3.22;;
47349;SDS011;33088;51.982;5.872;2022-11-23T06:03:08;17.35;;;2.95;;
47349;SDS011;33088;51.982;5.872;2022-11-23T06:05:34;17.45;;;2.60;;
47349;SDS011;33088;51.982;5.872;2022-11-23T06:08:00;21.13;;;3.63;;
47349;SDS011;33088;51.982;5.872;2022-11-23T06:10:26;18.15;;;2.72;;
47349;SDS011;33088;51.982;5.872;2022-11-23T06:12:52;12.10;;;2.95;;
47349;SDS011;33088;51.982;5.872;2022-11-23T06:15:19;12.68;;;3.67;;
47349;SDS011;33088;51.982;5.872;2022-11-23T06:17:46;11.48;;;3.38;;
47349;SDS011;33088;51.982;5.872;2022-11-23T06:20:17;10.98;;;3.28;;
47349;SDS011;33088;51.982;5.872;2022-11-23T06:22:54;17.15;;;4.07;;
47349;SDS011;33088;51.982;5.872;2022-11-23T06:25:22;18.90;;;3.80;;
47349;SDS011;33088;51.982;5.872;2022-11-23T06:28:00;23.48;;;4.57;;
47349;SDS011;33088;51.982;5.872;2022-11-23T06:30:34;9.40;;;2.88;;
47349;SDS011;33088;51.982;5.872;2022-11-23T06:33:03;9.00;;;3.85;;
47349;SDS011;33088;51.982;5.872;2022-11-23T06:35:33;12.02;;;3.30;;
47349;SDS011;33088;51.982;5.872;2022-11-23T06:37:59;17.88;;;3.38;;
47349;SDS011;33088;51.982;5.872;2022-11-23T06:40:25;15.90;;;3.00;;
47349;SDS011;33088;51.982;5.872;2022-11-23T06:42:56;9.63;;;2.97;;
47349;SDS011;33088;51.982;5.872;2022-11-23T06:45:39;16.05;;;3.65;;
47349;SDS011;33088;51.982;5.872;2022-11-23T06:48:08;13.80;;;2.67;;
47349;SDS011;33088;51.982;5.872;2022-11-23T06:50:39;24.73;;;3.95;;
47349;SDS011;33088;51.982;5.872;2022-11-23T06:53:05;16.10;;;3.58;;
47349;SDS011;33088;51.982;5.872;2022-11-23T06:55:38;18.27;;;3.30;;
47349;SDS011;33088;51.982;5.872;2022-11-23T06:58:05;19.90;;;3.38;;
47349;SDS011;33088;51.982;5.872;2022-11-23T07:00:31;11.82;;;3.55;;
47349;SDS011;33088;51.982;5.872;2022-11-23T07:02:58;17.50;;;3.28;;
47349;SDS011;33088;51.982;5.872;2022-11-23T07:05:24;23.55;;;3.60;;
47349;SDS011;33088;51.982;5.872;2022-11-23T07:07:50;14.85;;;3.20;;
47349;SDS011;33088;51.982;5.872;2022-11-23T07:10:22;16.42;;;2.63;;
47349;SDS011;33088;51.982;5.872;2022-11-23T07:12:53;22.25;;;4.03;;
47349;SDS011;33088;51.982;5.872;2022-11-23T07:15:20;22.45;;;3.50;;
47349;SDS011;33088;51.982;5.872;2022-11-23T07:17:48;21.95;;;3.72;;
47349;SDS011;33088;51.982;5.872;2022-11-23T07:20:14;16.13;;;3.10;;
47349;SDS011;33088;51.982;5.872;2022-11-23T07:22:42;16.60;;;3.15;;
47349;SDS011;33088;51.982;5.872;2022-11-23T07:25:08;19.08;;;3.67;;
47349;SDS011;33088;51.982;5.872;2022-11-23T07:27:35;26.40;;;3.97;;
47349;SDS011;33088;51.982;5.872;2022-11-23T07:30:02;19.13;;;3.67;;
47349;SDS011;33088;51.982;5.872;2022-11-23T07:32:29;16.63;;;3.65;;
47349;SDS011;33088;51.982;5.872;2022-11-23T07:34:54;25.70;;;4.53;;
47349;SDS011;33088;51.982;5.872;2022-11-23T07:37:20;20.83;;;4.03;;
47349;SDS011;33088;51.982;5.872;2022-11-23T07:39:46;18.02;;;2.83;;
47349;SDS011;33088;51.982;5.872;2022-11-23T07:42:11;20.65;;;3.83;;
47349;SDS011;33088;51.982;5.872;2022-11-23T07:44:38;16.58;;;2.85;;
47349;SDS011;33088;51.982;5.872;2022-11-23T07:47:07;21.77;;;3.75;;
47349;SDS011;33088;51.982;5.872;2022-11-23T07:49:33;20.63;;;4.53;;
47349;SDS011;33088;51.982;5.872;2022-11-23T07:51:58;13.40;;;3.08;;
47349;SDS011;33088;51.982;5.872;2022-11-23T07:54:24;18.70;;;3.50;;
47349;SDS011;33088;51.982;5.872;2022-11-23T07:56:49;16.77;;;3.28;;
47349;SDS011;33088;51.982;5.872;2022-11-23T07:59:15;14.32;;;3.08;;
47349;SDS011;33088;51.982;5.872;2022-11-23T08:01:41;13.40;;;3.03;;
47349;SDS011;33088;51.982;5.872;2022-11-23T08:04:06;19.38;;;3.30;;
47349;SDS011;33088;51.982;5.872;2022-11-23T08:06:32;18.17;;;3.45;;
47349;SDS011;33088;51.982;5.872;2022-11-23T08:08:57;14.95;;;2.85;;
47349;SDS011;33088;51.982;5.872;2022-11-23T08:11:23;16.00;;;3.25;;
47349;SDS011;33088;51.982;5.872;2022-11-23T08:13:49;21.70;;;3.35;;
47349;SDS011;33088;51.982;5.872;2022-11-23T08:16:14;21.25;;;3.17;;
47349;SDS011;33088;51.982;5.872;2022-11-23T08:18:40;20.80;;;3.92;;
47349;SDS011;33088;51.982;5.872;2022-11-23T08:21:06;20.80;;;4.82;;
47349;SDS011;33088;51.982;5.872;2022-11-23T08:23:31;15.88;;;2.95;;
47349;SDS011;33088;51.982;5.872;2022-11-23T08:25:58;18.30;;;3.50;;
47349;SDS011;33088;51.982;5.872;2022-11-23T08:28:26;15.20;;;2.63;;
47349;SDS011;33088;51.982;5.872;2022-11-23T08:30:51;15.80;;;3.10;;
47349;SDS011;33088;51.982;5.872;2022-11-23T08:33:17;19.48;;;3.78;;
47349;SDS011;33088;51.982;5.872;2022-11-23T08:35:43;19.23;;;3.70;;
47349;SDS011;33088;51.982;5.872;2022-11-23T08:38:09;23.23;;;2.88;;
47349;SDS011;33088;51.982;5.872;2022-11-23T08:40:35;16.13;;;3.13;;
47349;SDS011;33088;51.982;5.872;2022-11-23T08:43:02;11.20;;;3.92;;
47349;SDS011;33088;51.982;5.872;2022-11-23T08:45:27;17.02;;;2.60;;
47349;SDS011;33088;51.982;5.872;2022-11-23T08:47:53;24.50;;;5.05;;
47349;SDS011;33088;51.982;5.872;2022-11-23T08:50:24;10.45;;;2.70;;
47349;SDS011;33088;51.982;5.872;2022-11-23T08:52:57;14.23;;;3.35;;
47349;SDS011;33088;51.982;5.872;2022-11-23T08:55:24;23.27;;;3.03;;
47349;SDS011;33088;51.982;5.872;2022-11-23T08:57:53;29.95;;;3.83;;
47349;SDS011;33088;51.982;5.872;2022-11-23T09:00:20;10.57;;;3.10;;
47349;SDS011;33088;51.982;5.872;2022-11-23T09:02:46;15.82;;;3.78;;
47349;SDS011;33088;51.982;5.872;2022-11-23T09:05:13;14.40;;;2.35;;
47349;SDS011;33088;51.982;5.872;2022-11-23T09:07:38;12.55;;;2.28;;
47349;SDS011;33088;51.982;5.872;2022-11-23T09:10:04;14.00;;;3.35;;
47349;SDS011;33088;51.982;5.872;2022-11-23T09:12:31;15.23;;;3.13;;
47349;SDS011;33088;51.982;5.872;2022-11-23T09:14:57;15.68;;;3.25;;
47349;SDS011;33088;51.982;5.872;2022-11-23T09:17:23;17.98;;;3.53;;
47349;SDS011;33088;51.982;5.872;2022-11-23T09:19:48;20.40;;;3.50;;
47349;SDS011;33088;51.982;5.872;2022-11-23T09:22:14;11.60;;;2.70;;
47349;SDS011;33088;51.982;5.872;2022-11-23T09:24:40;12.13;;;3.22;;
47349;SDS011;33088;51.982;5.872;2022-11-23T09:27:06;12.43;;;3.00;;
47349;SDS011;33088;51.982;5.872;2022-11-23T09:29:31;15.40;;;3.65;;
47349;SDS011;33088;51.982;5.872;2022-11-23T09:31:57;11.70;;;2.35;;
47349;SDS011;33088;51.982;5.872;2022-11-23T09:34:23;14.02;;;3.90;;
47349;SDS011;33088;51.982;5.872;2022-11-23T09:36:51;15.05;;;3.45;;
47349;SDS011;33088;51.982;5.872;2022-11-23T09:39:20;11.65;;;2.90;;
47349;SDS011;33088;51.982;5.872;2022-11-23T09:49:58;17.38;;;3.67;;
47349;SDS011;33088;51.982;5.872;2022-11-23T09:52:31;16.60;;;2.47;;
47349;SDS011;33088;51.982;5.872;2022-11-23T09:55:20;15.55;;;2.80;;
47349;SDS011;33088;51.982;5.872;2022-11-23T09:57:55;16.48;;;3.17;;
47349;SDS011;33088;51.982;5.872;2022-11-23T10:00:26;13.90;;;3.97;;
47349;SDS011;33088;51.982;5.872;2022-11-23T10:03:00;17.45;;;2.67;;
47349;SDS011;33088;51.982;5.872;2022-11-23T10:05:26;13.52;;;3.13;;
47349;SDS011;33088;51.982;5.872;2022-11-23T10:08:08;11.50;;;2.78;;
47349;SDS011;33088;51.982;5.872;2022-11-23T10:11:05;15.50;;;2.97;;
47349;SDS011;33088;51.982;5.872;2022-11-23T10:16:28;11.95;;;2.78;;
47349;SDS011;33088;51.982;5.872;2022-11-23T10:19:16;9.02;;;2.58;;
47349;SDS011;33088;51.982;5.872;2022-11-23T10:21:58;17.10;;;3.47;;
47349;SDS011;33088;51.982;5.872;2022-11-23T10:24:41;20.60;;;3.15;;
47349;SDS011;33088;51.982;5.872;2022-11-23T10:27:11;13.55;;;2.80;;
47349;SDS011;33088;51.982;5.872;2022-11-23T10:29:40;14.32;;;2.67;;
47349;SDS011;33088;51.982;5.872;2022-11-23T10:32:12;11.75;;;2.08;;
47349;SDS011;33088;51.982;5.872;2022-11-23T10:35:14;15.27;;;2.85;;
47349;SDS011;33088;51.982;5.872;2022-11-23T10:37:42;12.93;;;3.42;;
47349;SDS011;33088;51.982;5.872;2022-11-23T10:45:42;8.30;;;2.35;;
47349;SDS011;33088;51.982;5.872;2022-11-23T10:48:08;6.15;;;2.22;;
47349;SDS011;33088;51.982;5.872;2022-11-23T10:50:34;12.23;;;2.47;;
47349;SDS011;33088;51.982;5.872;2022-11-23T10:55:49;11.75;;;2.72;;
47349;SDS011;33088;51.982;5.872;2022-11-23T11:01:00;16.02;;;2.42;;
47349;SDS011;33088;51.982;5.872;2022-11-23T11:03:29;22.83;;;3.00;;
47349;SDS011;33088;51.982;5.872;2022-11-23T11:05:59;9.38;;;3.10;;
47349;SDS011;33088;51.982;5.872;2022-11-23T11:08:29;10.75;;;2.75;;
47349;SDS011;33088;51.982;5.872;2022-11-23T11:10:58;13.60;;;1.90;;
47349;SDS011;33088;51.982;5.872;2022-11-23T11:16:05;11.23;;;2.75;;
47349;SDS011;33088;51.982;5.872;2022-11-23T11:18:42;12.25;;;2.78;;
47349;SDS011;33088;51.982;5.872;2022-11-23T11:23:55;14.02;;;3.88;;
47349;SDS011;33088;51.982;5.872;2022-11-23T11:26:27;9.18;;;1.85;;
47349;SDS011;33088;51.982;5.872;2022-11-23T11:28:55;10.90;;;2.30;;
47349;SDS011;33088;51.982;5.872;2022-11-23T11:31:42;12.52;;;2.22;;
47349;SDS011;33088;51.982;5.872;2022-11-23T11:36:47;9.27;;;2.20;;
47349;SDS011;33088;51.982;5.872;2022-11-23T11:39:17;9.15;;;1.92;;
47349;SDS011;33088;51.982;5.872;2022-11-23T11:41:50;12.60;;;1.90;;
47349;SDS011;33088;51.982;5.872;2022-11-23T11:44:19;11.52;;;1.90;;
47349;SDS011;33088;51.982;5.872;2022-11-23T11:46:50;18.85;;;2.45;;
47349;SDS011;33088;51.982;5.872;2022-11-23T11:49:36;13.73;;;2.38;;
47349;SDS011;33088;51.982;5.872;2022-11-23T11:52:08;12.77;;;2.78;;
47349;SDS011;33088;51.982;5.872;2022-11-23T11:55:01;13.90;;;2.33;;
47349;SDS011;33088;51.982;5.872;2022-11-23T11:57:50;12.55;;;2.92;;
47349;SDS011;33088;51.982;5.872;2022-11-23T12:00:20;13.90;;;2.08;;
47349;SDS011;33088;51.982;5.872;2022-11-23T12:02:54;16.63;;;2.17;;
47349;SDS011;33088;51.982;5.872;2022-11-23T12:10:42;11.93;;;2.13;;
47349;SDS011;33088;51.982;5.872;2022-11-23T12:13:18;12.93;;;2.13;;
47349;SDS011;33088;51.982;5.872;2022-11-23T12:15:50;5.72;;;1.67;;
47349;SDS011;33088;51.982;5.872;2022-11-23T12:21:55;10.63;;;1.60;;
47349;SDS011;33088;51.982;5.872;2022-11-23T12:27:36;16.48;;;2.40;;
47349;SDS011;33088;51.982;5.872;2022-11-23T12:52:53;6.25;;;1.85;;
47349;SDS011;33088;51.982;5.872;2022-11-23T12:55:25;8.77;;;1.40;;
47349;SDS011;33088;51.982;5.872;2022-11-23T12:58:17;8.20;;;1.52;;
47349;SDS011;33088;51.982;5.872;2022-11-23T13:01:00;8.40;;;2.35;;
47349;SDS011;33088;51.982;5.872;2022-11-23T13:09:00;12.93;;;1.77;;
47349;SDS011;33088;51.982;5.872;2022-11-23T13:19:46;7.70;;;1.20;;
47349;SDS011;33088;51.982;5.872;2022-11-23T13:22:30;15.30;;;3.08;;
47349;SDS011;33088;51.982;5.872;2022-11-23T13:27:41;6.68;;;1.23;;
47349;SDS011;33088;51.982;5.872;2022-11-23T13:30:08;7.18;;;1.45;;
47349;SDS011;33088;51.982;5.872;2022-11-23T13:32:58;9.98;;;1.60;;
47349;SDS011;33088;51.982;5.872;2022-11-23T13:35:49;5.13;;;1.27;;
47349;SDS011;33088;51.982;5.872;2022-11-23T13:38:22;4.80;;;1.30;;
47349;SDS011;33088;51.982;5.872;2022-11-23T13:40:52;6.32;;;1.38;;
47349;SDS011;33088;51.982;5.872;2022-11-23T13:43:24;8.25;;;1.70;;
47349;SDS011;33088;51.982;5.872;2022-11-23T13:48:51;4.25;;;1.42;;
47349;SDS011;33088;51.982;5.872;2022-11-23T13:51:25;7.07;;;1.98;;
47349;SDS011;33088;51.982;5.872;2022-11-23T13:53:57;7.70;;;1.55;;
47349;SDS011;33088;51.982;5.872;2022-11-23T13:56:29;5.93;;;1.15;;
47349;SDS011;33088;51.982;5.872;2022-11-23T13:59:19;3.92;;;0.93;;
47349;SDS011;33088;51.982;5.872;2022-11-23T14:01:56;6.80;;;1.50;;
47349;SDS011;33088;51.982;5.872;2022-11-23T14:04:22;4.03;;;1.17;;
47349;SDS011;33088;51.982;5.872;2022-11-23T14:06:57;6.65;;;1.63;;
47349;SDS011;33088;51.982;5.872;2022-11-23T14:12:35;3.35;;;1.23;;
47349;SDS011;33088;51.982;5.872;2022-11-23T14:15:21;4.93;;;1.65;;
47349;SDS011;33088;51.982;5.872;2022-11-23T14:20:48;7.18;;;1.15;;
47349;SDS011;33088;51.982;5.872;2022-11-23T14:26:46;8.38;;;1.27;;
47349;SDS011;33088;51.982;5.872;2022-11-23T14:29:39;6.25;;;1.48;;
47349;SDS011;33088;51.982;5.872;2022-11-23T14:32:15;6.95;;;1.20;;
47349;SDS011;33088;51.982;5.872;2022-11-23T14:40:22;5.03;;;1.20;;
47349;SDS011;33088;51.982;5.872;2022-11-23T14:42:56;8.88;;;1.55;;
47349;SDS011;33088;51.982;5.872;2022-11-23T14:45:28;4.50;;;1.25;;
47349;SDS011;33088;51.982;5.872;2022-11-23T14:48:18;7.13;;;1.30;;
47349;SDS011;33088;51.982;5.872;2022-11-23T14:50:57;5.95;;;1.23;;
47349;SDS011;33088;51.982;5.872;2022-11-23T14:53:27;6.80;;;1.67;;
47349;SDS011;33088;51.982;5.872;2022-11-23T14:55:57;8.38;;;1.58;;
47349;SDS011;33088;51.982;5.872;2022-11-23T14:58:23;6.72;;;1.80;;
47349;SDS011;33088;51.982;5.872;2022-11-23T15:00:52;6.57;;;1.50;;
47349;SDS011;33088;51.982;5.872;2022-11-23T15:03:27;4.13;;;1.52;;
47349;SDS011;33088;51.982;5.872;2022-11-23T15:05:56;5.90;;;2.13;;
47349;SDS011;33088;51.982;5.872;2022-11-23T15:08:31;5.88;;;1.52;;
47349;SDS011;33088;51.982;5.872;2022-11-23T15:11:08;11.38;;;2.05;;
47349;SDS011;33088;51.982;5.872;2022-11-23T15:13:46;5.10;;;1.25;;
47349;SDS011;33088;51.982;5.872;2022-11-23T15:16:17;6.75;;;1.50;;
47349;SDS011;33088;51.982;5.872;2022-11-23T15:18:44;8.13;;;1.85;;
47349;SDS011;33088;51.982;5.872;2022-11-23T15:24:17;8.50;;;1.98;;
47349;SDS011;33088;51.982;5.872;2022-11-23T15:26:28;8.98;;;2.17;;
47349;SDS011;33088;51.982;5.872;2022-11-23T15:28:55;7.57;;;1.50;;
47349;SDS011;33088;51.982;5.872;2022-11-23T15:34:04;10.85;;;1.40;;
47349;SDS011;33088;51.982;5.872;2022-11-23T15:36:38;7.15;;;2.30;;
47349;SDS011;33088;51.982;5.872;2022-11-23T15:39:06;7.38;;;1.90;;
47349;SDS011;33088;51.982;5.872;2022-11-23T15:41:42;10.20;;;1.85;;
47349;SDS011;33088;51.982;5.872;2022-11-23T15:44:15;5.25;;;1.70;;
47349;SDS011;33088;51.982;5.872;2022-11-23T15:46:49;7.00;;;2.17;;
47349;SDS011;33088;51.982;5.872;2022-11-23T15:49:18;13.80;;;2.28;;
47349;SDS011;33088;51.982;5.872;2022-11-23T15:51:44;9.15;;;2.08;;
47349;SDS011;33088;51.982;5.872;2022-11-23T15:54:16;6.30;;;2.13;;
47349;SDS011;33088;51.982;5.872;2022-11-23T15:56:46;5.03;;;1.80;;
47349;SDS011;33088;51.982;5.872;2022-11-23T15:59:26;10.00;;;2.10;;
47349;SDS011;33088;51.982;5.872;2022-11-23T16:01:59;12.05;;;2.38;;
47349;SDS011;33088;51.982;5.872;2022-11-23T16:04:28;7.78;;;2.30;;
47349;SDS011;33088;51.982;5.872;2022-11-23T16:07:22;11.13;;;2.30;;
47349;SDS011;33088;51.982;5.872;2022-11-23T16:09:49;9.18;;;1.80;;
47349;SDS011;33088;51.982;5.872;2022-11-23T16:12:48;7.45;;;2.38;;
47349;SDS011;33088;51.982;5.872;2022-11-23T16:17:51;7.88;;;2.22;;
47349;SDS011;33088;51.982;5.872;2022-11-23T16:20:17;6.63;;;1.83;;
47349;SDS011;33088;51.982;5.872;2022-11-23T16:22:47;8.82;;;1.90;;
47349;SDS011;33088;51.982;5.872;2022-11-23T16:25:32;9.13;;;2.40;;
47349;SDS011;33088;51.982;5.872;2022-11-23T16:27:59;6.75;;;1.83;;
47349;SDS011;33088;51.982;5.872;2022-11-23T16:30:26;6.47;;;1.95;;
47349;SDS011;33088;51.982;5.872;2022-11-23T16:33:11;10.80;;;2.63;;
47349;SDS011;33088;51.982;5.872;2022-11-23T16:35:39;6.18;;;2.70;;
47349;SDS011;33088;51.982;5.872;2022-11-23T16:38:05;7.35;;;2.63;;
47349;SDS011;33088;51.982;5.872;2022-11-23T16:40:31;5.65;;;2.67;;
47349;SDS011;33088;51.982;5.872;2022-11-23T16:42:57;11.35;;;3.53;;
47349;SDS011;33088;51.982;5.872;2022-11-23T16:45:23;7.30;;;2.40;;
47349;SDS011;33088;51.982;5.872;2022-11-23T16:47:53;7.28;;;2.65;;
47349;SDS011;33088;51.982;5.872;2022-11-23T16:50:32;8.52;;;2.40;;
47349;SDS011;33088;51.982;5.872;2022-11-23T16:53:13;8.05;;;2.40;;
47349;SDS011;33088;51.982;5.872;2022-11-23T16:55:41;4.63;;;2.40;;